KBKT

Details ICAO KBKT
Name ALLEN C PERKINSON BLACKSTONE AAF
Region United States
Timezone America/New_York (UTC-4.0)
Plans Departing 9
Arriving 3
Stats Elevation 439 ft / 134 m (AMSL)
Location 37.074761° -77.957394°
Runways 2
Magnetic Variation 9.928° W
Sunrise 2018-05-26 09:57:39 UTC / 2018-05-26 05:57:39 Local
Sunset 2018-05-27 00:23:01 UTC / 2018-05-26 20:23:01 Local
Advertisement - Login to hide

Runways

ID Width Length Bearing (true) Bearing (mag) Surface Threshold Offset Overrun Length
01 75 ft / 23 m 4,044 ft / 1,233 m 0.88° 10.81° Concrete 0 ft / 0 m 331 ft / 101 m
04 151 ft / 46 m 5,340 ft / 1,628 m 34.39° 44.32° Concrete 0 ft / 0 m 0 ft / 0 m
19 75 ft / 23 m 4,044 ft / 1,233 m 180.88° 190.81° Concrete 0 ft / 0 m 863 ft / 263 m
22 151 ft / 46 m 5,340 ft / 1,628 m 214.40° 224.33° Concrete 0 ft / 0 m 0 ft / 0 m

Map

Weather


0- 5 10 15 20 25 30 35+ Temperature / ° C

Clouds and Precipitation
Forecast for 2018-05-26 06:00 UTC. Updated 2 hours ago

Ground ~20,000 ft ~40,000 ft Winds

METAR

KBKT 260655Z AUTO 20006KT 10SM CLR 21/21 A2995 RMK AO1 T02050205

TAF

Not found

Frequencies

Unicom 122.95 MHz CTAF/UNICOM
Tower 126.20 MHz TWR
Warning: Do not use this data for real-world aviation or navigation. No guarantee of current accuracy is given.